CDT,Max TemperatureF,Mean TemperatureF,Min TemperatureF,Max Dew PointF,MeanDew PointF,Min DewpointF,Max Humidity, Mean Humidity, Min Humidity, Max Sea Level PressureIn, Mean Sea Level PressureIn, Min Sea Level PressureIn, Max VisibilityMiles, Mean VisibilityMiles, Min VisibilityMiles, Max Wind SpeedMPH, Mean Wind SpeedMPH, Max Gust SpeedMPH,PrecipitationIn, CloudCover, Events, WindDirDegrees
2013-3-1,53,42,30,30,26,23,87,62,30,30.27,30.21,30.15,10,10,10,16,8,24,0.00,1,,325
2013-3-2,50,39,28,21,19,14,69,49,25,30.38,30.30,30.25,10,10,10,18,9,24,0.00,2,,335
2013-3-3,64,44,24,32,26,19,86,49,26,30.24,30.08,29.85,10,10,10,16,5,22,0.00,0,,150
2013-3-4,77,62,48,48,43,32,82,53,29,29.85,29.71,29.61,10,10,10,24,11,31,0.00,0,,184
2013-3-5,57,47,37,45,26,18,66,45,24,30.33,30.17,29.74,10,10,10,24,14,32,0.00,1,,326
2013-3-6,60,45,30,27,20,14,65,40,16,30.43,30.33,30.23,10,10,10,13,5,,0.00,0,,301
2013-3-7,66,50,35,32,28,21,81,48,23,30.33,30.25,30.17,10,10,10,13,9,20,0.00,0,,116
2013-3-8,62,52,41,36,33,30,70,48,32,30.27,30.18,30.07,10,10,10,15,9,20,0.00,4,,103
2013-3-9,66,60,55,55,49,36,82,67,44,30.06,29.89,29.75,10,10,4,20,11,28,0.04,6,,139
2013-3-10,59,48,37,55,41,28,94,75,51,30.03,29.86,29.72,10,9,1,20,9,29,0.78,6,,300
2013-3-11,53,42,32,30,26,21,80,58,28,30.07,30.03,29.99,10,10,10,17,10,26,0.00,1,,287
2013-3-12,69,50,30,36,27,19,93,51,17,30.30,30.18,30.07,10,10,10,8,2,,0.00,0,,351
2013-3-13,68,50,33,36,26,19,81,43,16,30.47,30.39,30.31,10,10,10,8,5,17,0.00,0,,18
2013-3-14,73,54,35,41,34,27,70,46,25,30.39,30.29,30.19,10,10,10,17,8,24,0.00,0,,175
2013-3-15,78,61,44,50,44,39,87,54,28,30.19,30.05,29.91,10,10,10,23,8,31,0.00,0,,202
2013-3-16,80,66,51,52,48,45,82,55,30,29.91,29.84,29.74,10,10,10,17,10,25,0.00,0,,177
2013-3-17,73,62,51,59,53,46,83,69,50,29.80,29.74,29.66,10,10,10,21,11,29,0.00,4,,200
2013-3-18,66,55,44,54,44,37,94,68,37,30.05,29.85,29.68,10,9,3,18,6,24,0.01,2,,353
2013-3-19,64,50,35,39,32,25,93,56,22,30.17,30.09,30.01,10,10,10,15,5,23,0.00,0,,74
2013-3-20,64,48,33,30,26,21,75,41,19,30.32,30.20,30.09,10,10,7,13,7,20,0.00,0,,23
2013-3-21,48,44,39,36,30,19,87,62,34,30.08,29.91,29.74,10,10,5,18,10,26,0.05,3,,100
2013-3-22,44,40,37,45,40,36,100,92,87,29.87,29.80,29.72,10,5,2,20,13,26,0.01,8,,76
2013-3-23,46,44,42,46,43,41,100,94,93,29.89,29.78,29.69,10,6,2,13,5,20,0.18,8,,76
2013-3-24,48,42,35,45,31,23,93,68,43,30.14,29.96,29.74,10,10,3,28,13,39,0.02,5,,311
2013-3-25,50,39,28,23,19,14,74,48,24,30.38,30.26,30.14,10,10,10,22,11,31,0.00,0,,324
2013-3-26,55,40,26,25,20,18,74,50,23,30.48,30.39,30.32,10,10,10,13,5,23,0.00,0,,286
2013-3-27,66,47,28,30,25,23,86,48,19,30.37,30.28,30.16,10,10,10,15,5,22,0.00,0,,140
2013-3-28,71,56,42,50,41,28,66,52,38,30.29,30.20,30.14,10,10,10,15,8,18,0.00,4,,144
2013-3-29,73,64,55,61,54,50,88,70,50,30.20,30.15,30.09,10,10,3,16,9,25,0.01,3,,176
2013-3-30,68,62,57,61,57,55,94,90,78,30.09,30.01,29.92,10,7,1,17,8,31,0.72,5,,101
2013-3-31,75,64,53,61,52,45,100,74,38,29.99,29.93,29.86,10,9,1,28,6,41,0.73,2,,36